sensor_id;sensor_type;location;lat;lon;timestamp;pressure;altitude;pressure_sealevel;temperature;humidity
61537;BME280;48695;53.480;-6.300;2023-03-11T00:00:26;100208.06;;;6.55;53.02
61537;BME280;48695;53.480;-6.300;2023-03-11T00:02:54;100202.88;;;6.55;52.55
61537;BME280;48695;53.480;-6.300;2023-03-11T00:05:31;100182.25;;;6.45;52.95
61537;BME280;48695;53.480;-6.300;2023-03-11T00:07:57;100199.34;;;6.59;51.53
61537;BME280;48695;53.480;-6.300;2023-03-11T00:10:26;100203.66;;;6.58;53.24
61537;BME280;48695;53.480;-6.300;2023-03-11T00:12:52;100189.00;;;6.57;52.51
61537;BME280;48695;53.480;-6.300;2023-03-11T00:15:18;100194.22;;;6.56;52.85
61537;BME280;48695;53.480;-6.300;2023-03-11T00:17:43;100209.78;;;6.56;52.57
61537;BME280;48695;53.480;-6.300;2023-03-11T00:20:18;100201.97;;;6.57;53.23
61537;BME280;48695;53.480;-6.300;2023-03-11T00:22:44;100194.22;;;6.56;54.35
61537;BME280;48695;53.480;-6.300;2023-03-11T00:25:11;100195.94;;;6.57;53.18
61537;BME280;48695;53.480;-6.300;2023-03-11T00:27:37;100192.44;;;6.58;53.68
61537;BME280;48695;53.480;-6.300;2023-03-11T00:30:03;100180.41;;;6.52;52.84
61537;BME280;48695;53.480;-6.300;2023-03-11T00:32:29;100182.97;;;6.55;53.59
61537;BME280;48695;53.480;-6.300;2023-03-11T00:34:54;100181.22;;;6.57;53.47
61537;BME280;48695;53.480;-6.300;2023-03-11T00:37:19;100177.72;;;6.58;53.50
61537;BME280;48695;53.480;-6.300;2023-03-11T00:39:45;100182.06;;;6.58;53.71
61537;BME280;48695;53.480;-6.300;2023-03-11T00:42:10;100176.88;;;6.58;53.59
61537;BME280;48695;53.480;-6.300;2023-03-11T00:44:36;100178.66;;;6.56;53.62
61537;BME280;48695;53.480;-6.300;2023-03-11T00:47:01;100113.56;;;6.14;52.99
61537;BME280;48695;53.480;-6.300;2023-03-11T00:49:26;100194.13;;;6.62;53.51
61537;BME280;48695;53.480;-6.300;2023-03-11T00:51:52;100174.28;;;6.58;53.72
61537;BME280;48695;53.480;-6.300;2023-03-11T00:54:17;100180.25;;;6.63;53.51
61537;BME280;48695;53.480;-6.300;2023-03-11T00:56:43;100180.25;;;6.63;53.31
61537;BME280;48695;53.480;-6.300;2023-03-11T00:59:08;100187.16;;;6.64;53.93
61537;BME280;48695;53.480;-6.300;2023-03-11T01:01:33;100139.16;;;6.37;53.66
61537;BME280;48695;53.480;-6.300;2023-03-11T01:03:59;100185.41;;;6.66;53.72
61537;BME280;48695;53.480;-6.300;2023-03-11T01:06:24;100174.19;;;6.65;54.47
61537;BME280;48695;53.480;-6.300;2023-03-11T01:08:50;100172.44;;;6.66;54.41
61537;BME280;48695;53.480;-6.300;2023-03-11T01:11:15;100171.59;;;6.64;53.08
61537;BME280;48695;53.480;-6.300;2023-03-11T01:13:40;100169.84;;;6.66;53.05
61537;BME280;48695;53.480;-6.300;2023-03-11T01:16:06;100174.16;;;6.67;53.03
61537;BME280;48695;53.480;-6.300;2023-03-11T01:18:33;100177.59;;;6.67;53.75
61537;BME280;48695;53.480;-6.300;2023-03-11T01:20:58;100167.28;;;6.64;53.50
61537;BME280;48695;53.480;-6.300;2023-03-11T01:23:24;100163.81;;;6.65;53.52
61537;BME280;48695;53.480;-6.300;2023-03-11T01:25:49;100163.81;;;6.65;54.76
61537;BME280;48695;53.480;-6.300;2023-03-11T01:28:15;100160.31;;;6.66;54.63
61537;BME280;48695;53.480;-6.300;2023-03-11T01:30:41;100153.44;;;6.65;54.21
61537;BME280;48695;53.480;-6.300;2023-03-11T01:33:10;100143.06;;;6.65;54.69
61537;BME280;48695;53.480;-6.300;2023-03-11T01:35:37;100141.34;;;6.64;55.95
61537;BME280;48695;53.480;-6.300;2023-03-11T01:38:04;100132.00;;;6.53;54.77
61537;BME280;48695;53.480;-6.300;2023-03-11T01:40:38;100140.47;;;6.64;54.66
61537;BME280;48695;53.480;-6.300;2023-03-11T01:43:06;100144.81;;;6.62;54.72
61537;BME280;48695;53.480;-6.300;2023-03-11T01:48:16;100127.72;;;6.48;54.70
61537;BME280;48695;53.480;-6.300;2023-03-11T01:50:48;100137.94;;;6.61;54.43
61537;BME280;48695;53.480;-6.300;2023-03-11T01:53:15;100138.84;;;6.57;55.30
61537;BME280;48695;53.480;-6.300;2023-03-11T01:55:42;100125.84;;;6.58;54.64
61537;BME280;48695;53.480;-6.300;2023-03-11T01:58:12;100130.19;;;6.58;54.41
61537;BME280;48695;53.480;-6.300;2023-03-11T02:00:41;100112.16;;;6.50;54.76
61537;BME280;48695;53.480;-6.300;2023-03-11T02:03:33;100112.91;;;6.57;54.88
61537;BME280;48695;53.480;-6.300;2023-03-11T02:06:09;100099.25;;;6.45;55.86
61537;BME280;48695;53.480;-6.300;2023-03-11T02:08:36;100122.53;;;6.50;54.69
61537;BME280;48695;53.480;-6.300;2023-03-11T02:11:04;100122.53;;;6.48;54.81
61537;BME280;48695;53.480;-6.300;2023-03-11T02:13:33;100132.06;;;6.49;54.83
61537;BME280;48695;53.480;-6.300;2023-03-11T02:16:00;100124.31;;;6.46;55.40
61537;BME280;48695;53.480;-6.300;2023-03-11T02:18:26;100129.53;;;6.45;54.62
61537;BME280;48695;53.480;-6.300;2023-03-11T02:21:29;100130.38;;;6.45;54.27
61537;BME280;48695;53.480;-6.300;2023-03-11T02:24:01;100139.09;;;6.41;54.81
61537;BME280;48695;53.480;-6.300;2023-03-11T02:29:21;100132.22;;;6.37;54.76
61537;BME280;48695;53.480;-6.300;2023-03-11T02:31:47;100135.69;;;6.36;54.93
61537;BME280;48695;53.480;-6.300;2023-03-11T02:34:18;100137.47;;;6.34;54.77
61537;BME280;48695;53.480;-6.300;2023-03-11T02:36:45;100128.84;;;6.34;55.04
61537;BME280;48695;53.480;-6.300;2023-03-11T02:39:10;100123.66;;;6.34;55.25
61537;BME280;48695;53.480;-6.300;2023-03-11T02:41:39;100122.78;;;6.33;55.55
61537;BME280;48695;53.480;-6.300;2023-03-11T02:44:07;100122.81;;;6.32;55.14
61537;BME280;48695;53.480;-6.300;2023-03-11T02:46:35;100118.53;;;6.29;55.51
61537;BME280;48695;53.480;-6.300;2023-03-11T02:49:02;100122.78;;;6.35;54.14
61537;BME280;48695;53.480;-6.300;2023-03-11T02:51:28;100123.66;;;6.32;55.29
61537;BME280;48695;53.480;-6.300;2023-03-11T02:53:56;100110.81;;;6.23;55.10
61537;BME280;48695;53.480;-6.300;2023-03-11T02:56:24;100122.88;;;6.29;55.43
61537;BME280;48695;53.480;-6.300;2023-03-11T02:58:49;100121.94;;;6.31;55.54
61537;BME280;48695;53.480;-6.300;2023-03-11T03:01:15;100125.44;;;6.30;55.79
61537;BME280;48695;53.480;-6.300;2023-03-11T03:03:40;100118.50;;;6.31;56.10
61537;BME280;48695;53.480;-6.300;2023-03-11T03:06:06;100114.19;;;6.30;56.29
61537;BME280;48695;53.480;-6.300;2023-03-11T03:08:31;100097.81;;;6.26;56.33
61537;BME280;48695;53.480;-6.300;2023-03-11T03:10:57;100115.88;;;6.32;56.60
61537;BME280;48695;53.480;-6.300;2023-03-11T03:13:24;100118.47;;;6.32;56.35
61537;BME280;48695;53.480;-6.300;2023-03-11T03:15:50;100121.91;;;6.34;56.26
61537;BME280;48695;53.480;-6.300;2023-03-11T03:18:15;100123.69;;;6.31;56.16
61537;BME280;48695;53.480;-6.300;2023-03-11T03:20:41;100123.66;;;6.34;56.59
61537;BME280;48695;53.480;-6.300;2023-03-11T03:23:06;100129.69;;;6.34;57.33
61537;BME280;48695;53.480;-6.300;2023-03-11T03:25:31;100132.28;;;6.34;57.89
61537;BME280;48695;53.480;-6.300;2023-03-11T03:27:57;100128.84;;;6.32;57.30
61537;BME280;48695;53.480;-6.300;2023-03-11T03:30:22;100134.03;;;6.34;57.21
61537;BME280;48695;53.480;-6.300;2023-03-11T03:32:48;100131.44;;;6.32;57.60
61537;BME280;48695;53.480;-6.300;2023-03-11T03:35:13;100134.88;;;6.34;57.36
61537;BME280;48695;53.480;-6.300;2023-03-11T03:37:38;100129.69;;;6.34;57.34
61537;BME280;48695;53.480;-6.300;2023-03-11T03:40:05;100121.91;;;6.34;57.60
61537;BME280;48695;53.480;-6.300;2023-03-11T03:42:33;100114.13;;;6.34;58.03
61537;BME280;48695;53.480;-6.300;2023-03-11T03:44:59;100107.22;;;6.35;57.79
61537;BME280;48695;53.480;-6.300;2023-03-11T03:47:24;100102.03;;;6.33;57.84
61537;BME280;48695;53.480;-6.300;2023-03-11T03:49:49;100095.97;;;6.34;57.42
61537;BME280;48695;53.480;-6.300;2023-03-11T03:52:15;100097.72;;;6.34;57.42
61537;BME280;48695;53.480;-6.300;2023-03-11T03:54:40;100091.69;;;6.32;57.48
61537;BME280;48695;53.480;-6.300;2023-03-11T03:57:06;100089.06;;;6.33;57.48
61537;BME280;48695;53.480;-6.300;2023-03-11T03:59:31;100101.16;;;6.34;57.34
61537;BME280;48695;53.480;-6.300;2023-03-11T04:01:57;100094.25;;;6.33;57.75
61537;BME280;48695;53.480;-6.300;2023-03-11T04:04:22;100096.84;;;6.35;57.70
61537;BME280;48695;53.480;-6.300;2023-03-11T04:06:47;100100.28;;;6.35;57.47
61537;BME280;48695;53.480;-6.300;2023-03-11T04:09:13;100102.88;;;6.35;57.19
61537;BME280;48695;53.480;-6.300;2023-03-11T04:11:38;100095.09;;;6.35;57.61
61537;BME280;48695;53.480;-6.300;2023-03-11T04:14:04;100088.13;;;6.37;57.74
61537;BME280;48695;53.480;-6.300;2023-03-11T04:16:30;100069.97;;;6.37;58.04
61537;BME280;48695;53.480;-6.300;2023-03-11T04:18:56;100069.97;;;6.37;58.67
61537;BME280;48695;53.480;-6.300;2023-03-11T04:21:22;100076.88;;;6.38;58.73
61537;BME280;48695;53.480;-6.300;2023-03-11T04:23:48;100074.28;;;6.38;58.57
61537;BME280;48695;53.480;-6.300;2023-03-11T04:26:13;100069.09;;;6.38;58.55
61537;BME280;48695;53.480;-6.300;2023-03-11T04:28:39;100082.94;;;6.37;58.32
61537;BME280;48695;53.480;-6.300;2023-03-11T04:31:04;100083.81;;;6.38;58.32
61537;BME280;48695;53.480;-6.300;2023-03-11T04:33:30;100096.78;;;6.38;58.30
61537;BME280;48695;53.480;-6.300;2023-03-11T04:35:56;100104.59;;;6.36;57.64
61537;BME280;48695;53.480;-6.300;2023-03-11T04:38:21;100076.34;;;6.16;56.90
61537;BME280;48695;53.480;-6.300;2023-03-11T04:40:47;100115.00;;;6.35;56.91
61537;BME280;48695;53.480;-6.300;2023-03-11T04:43:12;100113.25;;;6.35;57.15
61537;BME280;48695;53.480;-6.300;2023-03-11T04:45:38;100106.34;;;6.34;57.21
61537;BME280;48695;53.480;-6.300;2023-03-11T04:48:04;100062.50;;;6.19;57.65
61537;BME280;48695;53.480;-6.300;2023-03-11T04:50:30;100078.78;;;6.29;57.55
61537;BME280;48695;53.480;-6.300;2023-03-11T04:52:55;100092.53;;;6.32;57.86
61537;BME280;48695;53.480;-6.300;2023-03-11T04:55:21;100111.53;;;6.34;57.60
61537;BME280;48695;53.480;-6.300;2023-03-11T04:57:47;100113.28;;;6.34;58.17
61537;BME280;48695;53.480;-6.300;2023-03-11T05:00:13;100110.69;;;6.34;57.99
61537;BME280;48695;53.480;-6.300;2023-03-11T05:02:40;100111.53;;;6.34;58.38
61537;BME280;48695;53.480;-6.300;2023-03-11T05:05:08;100117.59;;;6.33;58.46
61537;BME280;48695;53.480;-6.300;2023-03-11T05:07:34;100115.00;;;6.33;58.26
61537;BME280;48695;53.480;-6.300;2023-03-11T05:09:59;100106.38;;;6.31;59.25
61537;BME280;48695;53.480;-6.300;2023-03-11T05:12:25;100104.63;;;6.33;58.87
61537;BME280;48695;53.480;-6.300;2023-03-11T05:14:50;100101.16;;;6.34;57.46
61537;BME280;48695;53.480;-6.300;2023-03-11T05:17:16;100103.75;;;6.34;57.81
61537;BME280;48695;53.480;-6.300;2023-03-11T05:19:43;100111.53;;;6.34;58.09
61537;BME280;48695;53.480;-6.300;2023-03-11T05:22:09;100099.50;;;6.30;58.71
61537;BME280;48695;53.480;-6.300;2023-03-11T05:24:34;100090.03;;;6.26;59.52
61537;BME280;48695;53.480;-6.300;2023-03-11T05:27:00;100089.25;;;6.21;59.98
61537;BME280;48695;53.480;-6.300;2023-03-11T05:29:26;100090.16;;;6.17;60.40
61537;BME280;48695;53.480;-6.300;2023-03-11T05:31:51;100018.31;;;5.65;60.10
61537;BME280;48695;53.480;-6.300;2023-03-11T05:34:17;100093.75;;;6.10;59.95
61537;BME280;48695;53.480;-6.300;2023-03-11T05:36:43;100092.94;;;6.05;60.37
61537;BME280;48695;53.480;-6.300;2023-03-11T05:39:09;100084.31;;;6.03;61.54
61537;BME280;48695;53.480;-6.300;2023-03-11T05:41:35;100089.56;;;6.00;61.38
61537;BME280;48695;53.480;-6.300;2023-03-11T05:44:00;100093.03;;;5.98;61.12
61537;BME280;48695;53.480;-6.300;2023-03-11T05:46:26;100075.84;;;5.91;60.99
61537;BME280;48695;53.480;-6.300;2023-03-11T05:48:51;100064.72;;;5.83;60.90
61537;BME280;48695;53.480;-6.300;2023-03-11T05:51:17;100087.06;;;5.92;61.54
61537;BME280;48695;53.480;-6.300;2023-03-11T05:53:44;100060.44;;;5.79;61.59
61537;BME280;48695;53.480;-6.300;2023-03-11T05:56:13;100071.53;;;5.87;62.02
61537;BME280;48695;53.480;-6.300;2023-03-11T05:58:39;100069.81;;;5.88;62.41
61537;BME280;48695;53.480;-6.300;2023-03-11T06:01:12;100062.88;;;5.90;61.77
61537;BME280;48695;53.480;-6.300;2023-03-11T06:03:39;100058.56;;;5.90;61.94
61537;BME280;48695;53.480;-6.300;2023-03-11T06:06:06;100057.72;;;5.90;61.35
61537;BME280;48695;53.480;-6.300;2023-03-11T06:08:33;100049.94;;;5.90;60.80
61537;BME280;48695;53.480;-6.300;2023-03-11T06:11:02;100056.84;;;5.89;61.04
61537;BME280;48695;53.480;-6.300;2023-03-11T06:13:28;100059.44;;;5.88;61.50
61537;BME280;48695;53.480;-6.300;2023-03-11T06:15:53;100051.69;;;5.86;60.79
61537;BME280;48695;53.480;-6.300;2023-03-11T06:18:19;100050.00;;;5.85;60.91
61537;BME280;48695;53.480;-6.300;2023-03-11T06:20:44;100046.56;;;5.83;60.61
61537;BME280;48695;53.480;-6.300;2023-03-11T06:23:10;100044.84;;;5.82;60.62
61537;BME280;48695;53.480;-6.300;2023-03-11T06:25:35;100034.59;;;5.75;60.54
61537;BME280;48695;53.480;-6.300;2023-03-11T06:28:00;100050.09;;;5.79;60.34
61537;BME280;48695;53.480;-6.300;2023-03-11T06:30:26;100056.19;;;5.75;59.48
61537;BME280;48695;53.480;-6.300;2023-03-11T06:32:51;100063.94;;;5.75;60.67
61537;BME280;48695;53.480;-6.300;2023-03-11T06:35:17;100056.22;;;5.73;61.17
61537;BME280;48695;53.480;-6.300;2023-03-11T06:37:42;100055.34;;;5.73;61.10
61537;BME280;48695;53.480;-6.300;2023-03-11T06:40:08;100045.00;;;5.73;61.34
61537;BME280;48695;53.480;-6.300;2023-03-11T06:42:34;100049.28;;;5.72;61.44
61537;BME280;48695;53.480;-6.300;2023-03-11T06:45:00;100041.53;;;5.71;62.57
61537;BME280;48695;53.480;-6.300;2023-03-11T06:47:26;100045.84;;;5.72;61.94
61537;BME280;48695;53.480;-6.300;2023-03-11T06:49:51;100048.44;;;5.72;62.85
61537;BME280;48695;53.480;-6.300;2023-03-11T06:52:17;100048.44;;;5.72;62.57
61537;BME280;48695;53.480;-6.300;2023-03-11T06:54:43;100048.44;;;5.72;62.51
61537;BME280;48695;53.480;-6.300;2023-03-11T06:57:09;100035.47;;;5.72;62.86
61537;BME280;48695;53.480;-6.300;2023-03-11T06:59:35;100025.97;;;5.72;63.75
61537;BME280;48695;53.480;-6.300;2023-03-11T07:02:02;99998.50;;;5.61;63.30
61537;BME280;48695;53.480;-6.300;2023-03-11T07:04:28;100022.50;;;5.75;63.10
61537;BME280;48695;53.480;-6.300;2023-03-11T07:06:54;100015.59;;;5.76;64.03
61537;BME280;48695;53.480;-6.300;2023-03-11T07:09:20;100015.56;;;5.77;64.36
61537;BME280;48695;53.480;-6.300;2023-03-11T07:11:47;100019.88;;;5.78;64.10
61537;BME280;48695;53.480;-6.300;2023-03-11T07:14:13;100013.84;;;5.76;64.37
61537;BME280;48695;53.480;-6.300;2023-03-11T07:16:39;99993.22;;;5.70;64.31
61537;BME280;48695;53.480;-6.300;2023-03-11T07:19:05;100004.31;;;5.80;64.28
61537;BME280;48695;53.480;-6.300;2023-03-11T07:21:30;100006.75;;;5.87;63.85
61537;BME280;48695;53.480;-6.300;2023-03-11T07:23:58;100012.81;;;5.89;63.16
61537;BME280;48695;53.480;-6.300;2023-03-11T07:26:24;100020.50;;;5.95;60.83
61537;BME280;48695;53.480;-6.300;2023-03-11T07:28:50;100024.00;;;5.94;63.01
61537;BME280;48695;53.480;-6.300;2023-03-11T07:31:26;100025.66;;;5.98;62.63
61537;BME280;48695;53.480;-6.300;2023-03-11T07:33:52;100018.84;;;5.91;63.31
61537;BME280;48695;53.480;-6.300;2023-03-11T07:36:21;100020.47;;;5.98;63.76
61537;BME280;48695;53.480;-6.300;2023-03-11T07:38:47;100012.66;;;6.00;63.40
61537;BME280;48695;53.480;-6.300;2023-03-11T07:41:14;100013.50;;;6.04;63.39
61537;BME280;48695;53.480;-6.300;2023-03-11T07:43:43;100008.25;;;6.07;62.62
61537;BME280;48695;53.480;-6.300;2023-03-11T07:46:11;100009.06;;;6.10;61.62
61537;BME280;48695;53.480;-6.300;2023-03-11T07:48:38;100002.09;;;6.12;61.08
61537;BME280;48695;53.480;-6.300;2023-03-11T07:51:12;100006.41;;;6.15;61.26
61537;BME280;48695;53.480;-6.300;2023-03-11T07:53:38;99996.84;;;6.17;60.82
61537;BME280;48695;53.480;-6.300;2023-03-11T07:56:07;99977.09;;;6.10;60.87
61537;BME280;48695;53.480;-6.300;2023-03-11T07:58:34;99988.16;;;6.21;60.42
61537;BME280;48695;53.480;-6.300;2023-03-11T08:01:07;99986.38;;;6.23;60.17
61537;BME280;48695;53.480;-6.300;2023-03-11T08:03:34;99989.84;;;6.23;61.65
61537;BME280;48695;53.480;-6.300;2023-03-11T08:05:59;100002.78;;;6.25;61.64
61537;BME280;48695;53.480;-6.300;2023-03-11T08:08:25;99983.88;;;6.17;61.28
61537;BME280;48695;53.480;-6.300;2023-03-11T08:10:50;100003.63;;;6.26;61.02
61537;BME280;48695;53.480;-6.300;2023-03-11T08:13:16;99994.88;;;6.31;62.14
61537;BME280;48695;53.480;-6.300;2023-03-11T08:15:41;99995.66;;;6.36;61.49
61537;BME280;48695;53.480;-6.300;2023-03-11T08:18:07;99999.09;;;6.38;61.76
61537;BME280;48695;53.480;-6.300;2023-03-11T08:20:32;99996.41;;;6.43;61.14
61537;BME280;48695;53.480;-6.300;2023-03-11T08:22:58;99989.47;;;6.45;62.34
61537;BME280;48695;53.480;-6.300;2023-03-11T08:25:23;99988.56;;;6.47;61.77
61537;BME280;48695;53.480;-6.300;2023-03-11T08:27:49;99979.88;;;6.48;61.36
61537;BME280;48695;53.480;-6.300;2023-03-11T08:30:14;99974.69;;;6.48;62.48
61537;BME280;48695;53.480;-6.300;2023-03-11T08:32:40;99971.28;;;6.46;61.06
61537;BME280;48695;53.480;-6.300;2023-03-11T08:35:05;99972.91;;;6.52;61.95
61537;BME280;48695;53.480;-6.300;2023-03-11T08:37:31;99976.31;;;6.56;62.33
61537;BME280;48695;53.480;-6.300;2023-03-11T08:39:56;99974.53;;;6.58;62.10
61537;BME280;48695;53.480;-6.300;2023-03-11T08:42:21;99970.13;;;6.63;61.45
61537;BME280;48695;53.480;-6.300;2023-03-11T08:44:47;99974.38;;;6.67;62.02
61537;BME280;48695;53.480;-6.300;2023-03-11T08:47:12;99969.97;;;6.72;61.45
61537;BME280;48695;53.480;-6.300;2023-03-11T08:49:38;99975.03;;;6.78;61.13
61537;BME280;48695;53.480;-6.300;2023-03-11T08:52:04;99965.50;;;6.80;61.21
61537;BME280;48695;53.480;-6.300;2023-03-11T08:54:30;99964.53;;;6.84;60.93
61537;BME280;48695;53.480;-6.300;2023-03-11T08:56:56;99961.03;;;6.87;60.59
61537;BME280;48695;53.480;-6.300;2023-03-11T08:59:23;99929.25;;;6.74;60.65
61537;BME280;48695;53.480;-6.300;2023-03-11T09:01:48;99945.41;;;6.88;60.65
61537;BME280;48695;53.480;-6.300;2023-03-11T09:04:13;99943.63;;;6.92;60.35
61537;BME280;48695;53.480;-6.300;2023-03-11T09:06:43;99935.13;;;6.84;60.36
61537;BME280;48695;53.480;-6.300;2023-03-11T09:09:10;99914.41;;;6.82;60.56
61537;BME280;48695;53.480;-6.300;2023-03-11T09:11:36;99927.84;;;7.02;60.05
61537;BME280;48695;53.480;-6.300;2023-03-11T09:14:02;99927.78;;;7.04;60.38
61537;BME280;48695;53.480;-6.300;2023-03-11T09:16:28;99927.88;;;7.01;60.37
61537;BME280;48695;53.480;-6.300;2023-03-11T09:18:53;99945.03;;;7.08;59.78
61537;BME280;48695;53.480;-6.300;2023-03-11T09:21:19;99932.91;;;7.09;60.02
61537;BME280;48695;53.480;-6.300;2023-03-11T09:23:44;99928.59;;;7.08;59.79
61537;BME280;48695;53.480;-6.300;2023-03-11T09:26:11;99933.75;;;7.11;59.99
61537;BME280;48695;53.480;-6.300;2023-03-11T09:28:36;99918.06;;;7.14;59.63
61537;BME280;48695;53.480;-6.300;2023-03-11T09:31:02;99919.81;;;7.15;59.73
61537;BME280;48695;53.480;-6.300;2023-03-11T09:33:27;99923.22;;;7.17;60.15
61537;BME280;48695;53.480;-6.300;2023-03-11T09:35:53;99914.47;;;7.21;59.60
61537;BME280;48695;53.480;-6.300;2023-03-11T09:38:18;99902.31;;;7.23;59.78
61537;BME280;48695;53.480;-6.300;2023-03-11T09:49:16;99907.16;;;7.38;59.69
61537;BME280;48695;53.480;-6.300;2023-03-11T09:51:52;99919.19;;;7.42;60.15
61537;BME280;48695;53.480;-6.300;2023-03-11T09:54:20;99889.13;;;7.32;59.91
61537;BME280;48695;53.480;-6.300;2023-03-11T09:56:47;99908.66;;;7.48;59.41
61537;BME280;48695;53.480;-6.300;2023-03-11T09:59:18;99907.72;;;7.52;59.99
61537;BME280;48695;53.480;-6.300;2023-03-11T10:01:48;99895.50;;;7.56;59.66
61537;BME280;48695;53.480;-6.300;2023-03-11T10:06:45;99899.72;;;7.62;59.82
61537;BME280;48695;53.480;-6.300;2023-03-11T10:11:50;99889.09;;;7.71;59.76
61537;BME280;48695;53.480;-6.300;2023-03-11T10:23:03;99913.88;;;7.86;60.20
61537;BME280;48695;53.480;-6.300;2023-03-11T10:26:03;99888.63;;;7.89;60.17
61537;BME280;48695;53.480;-6.300;2023-03-11T10:28:31;99849.91;;;7.78;60.41
61537;BME280;48695;53.480;-6.300;2023-03-11T10:31:26;99886.78;;;7.94;59.88
61537;BME280;48695;53.480;-6.300;2023-03-11T10:33:58;99872.97;;;7.92;60.99
61537;BME280;48695;53.480;-6.300;2023-03-11T10:36:35;99896.38;;;7.92;60.08
61537;BME280;48695;53.480;-6.300;2023-03-11T10:39:03;99890.50;;;7.84;61.71
61537;BME280;48695;53.480;-6.300;2023-03-11T10:41:35;99888.00;;;7.79;61.34
61537;BME280;48695;53.480;-6.300;2023-03-11T10:44:13;99889.63;;;7.84;61.01
61537;BME280;48695;53.480;-6.300;2023-03-11T10:46:40;99887.16;;;7.79;61.25
61537;BME280;48695;53.480;-6.300;2023-03-11T10:49:13;99886.38;;;7.75;61.45
61537;BME280;48695;53.480;-6.300;2023-03-11T10:51:40;99904.75;;;7.68;61.81
61537;BME280;48695;53.480;-6.300;2023-03-11T10:54:06;99899.72;;;7.62;62.30
61537;BME280;48695;53.480;-6.300;2023-03-11T10:58:58;99897.34;;;7.51;63.32
61537;BME280;48695;53.480;-6.300;2023-03-11T11:01:25;99886.19;;;7.47;62.51
61537;BME280;48695;53.480;-6.300;2023-03-11T11:03:53;99894.03;;;7.44;63.35
61537;BME280;48695;53.480;-6.300;2023-03-11T11:06:34;99879.38;;;7.42;62.40
61537;BME280;48695;53.480;-6.300;2023-03-11T11:11:38;99865.81;;;7.29;64.39
61537;BME280;48695;53.480;-6.300;2023-03-11T11:14:04;99872.75;;;7.28;62.80
61537;BME280;48695;53.480;-6.300;2023-03-11T11:16:31;99871.16;;;7.23;64.70
61537;BME280;48695;53.480;-6.300;2023-03-11T11:19:12;99866.94;;;7.17;63.48
61537;BME280;48695;53.480;-6.300;2023-03-11T11:21:40;99878.31;;;7.12;64.57
61537;BME280;48695;53.480;-6.300;2023-03-11T11:24:18;99879.31;;;7.06;66.00
61537;BME280;48695;53.480;-6.300;2023-03-11T11:27:11;99874.22;;;7.01;64.24
61537;BME280;48695;53.480;-6.300;2023-03-11T11:29:39;99871.75;;;6.95;66.28
61537;BME280;48695;53.480;-6.300;2023-03-11T11:32:23;99874.34;;;6.95;65.66
61537;BME280;48695;53.480;-6.300;2023-03-11T11:35:00;99884.81;;;6.91;65.58
61537;BME280;48695;53.480;-6.300;2023-03-11T11:37:28;99857.28;;;6.84;65.78
61537;BME280;48695;53.480;-6.300;2023-03-11T11:42:37;99851.41;;;6.74;66.96
61537;BME280;48695;53.480;-6.300;2023-03-11T11:45:11;99863.63;;;6.69;67.63
61537;BME280;48695;53.480;-6.300;2023-03-11T11:47:42;99865.53;;;6.61;67.25
61537;BME280;48695;53.480;-6.300;2023-03-11T11:50:17;99860.41;;;6.58;67.72
61537;BME280;48695;53.480;-6.300;2023-03-11T11:52:54;99875.19;;;6.54;66.91
61537;BME280;48695;53.480;-6.300;2023-03-11T11:55:26;99855.47;;;6.45;66.84
61537;BME280;48695;53.480;-6.300;2023-03-11T11:57:52;99845.22;;;6.39;67.11
61537;BME280;48695;53.480;-6.300;2023-03-11T12:00:20;99838.47;;;6.31;67.31
61537;BME280;48695;53.480;-6.300;2023-03-11T12:05:57;99818.22;;;6.03;67.66
61537;BME280;48695;53.480;-6.300;2023-03-11T12:08:38;99833.78;;;6.05;68.00
61537;BME280;48695;53.480;-6.300;2023-03-11T12:11:13;99822.69;;;5.96;68.39
61537;BME280;48695;53.480;-6.300;2023-03-11T12:16:42;99811.63;;;5.85;68.71
61537;BME280;48695;53.480;-6.300;2023-03-11T12:30:32;99772.84;;;5.81;69.57
61537;BME280;48695;53.480;-6.300;2023-03-11T12:33:26;99770.22;;;5.82;69.92
61537;BME280;48695;53.480;-6.300;2023-03-11T12:35:58;99765.03;;;5.82;70.92
61537;BME280;48695;53.480;-6.300;2023-03-11T12:38:38;99746.13;;;5.77;69.88
61537;BME280;48695;53.480;-6.300;2023-03-11T12:41:06;99757.13;;;5.90;70.59
61537;BME280;48695;53.480;-6.300;2023-03-11T12:46:58;99751.81;;;5.99;69.76
61537;BME280;48695;53.480;-6.300;2023-03-11T12:49:12;99761.25;;;6.02;71.01
61537;BME280;48695;53.480;-6.300;2023-03-11T12:51:39;99746.53;;;6.04;70.51
61537;BME280;48695;53.480;-6.300;2023-03-11T12:57:25;99703.91;;;5.73;71.00
61537;BME280;48695;53.480;-6.300;2023-03-11T13:05:28;99711.94;;;6.06;70.91
61537;BME280;48695;53.480;-6.300;2023-03-11T13:10:54;99716.78;;;6.21;70.92
61537;BME280;48695;53.480;-6.300;2023-03-11T13:13:40;99715.81;;;6.27;71.05
61537;BME280;48695;53.480;-6.300;2023-03-11T13:18:41;99691.53;;;6.31;71.80
61537;BME280;48695;53.480;-6.300;2023-03-11T13:23:51;99683.56;;;6.40;71.65
61537;BME280;48695;53.480;-6.300;2023-03-11T13:26:29;99682.59;;;6.44;72.10
61537;BME280;48695;53.480;-6.300;2023-03-11T13:42:49;99643.09;;;6.70;71.57
61537;BME280;48695;53.480;-6.300;2023-03-11T13:45:24;99621.44;;;6.71;71.47
61537;BME280;48695;53.480;-6.300;2023-03-11T13:47:52;99617.91;;;6.74;72.05
61537;BME280;48695;53.480;-6.300;2023-03-11T13:50:28;99612.59;;;6.80;72.24
61537;BME280;48695;53.480;-6.300;2023-03-11T13:52:57;99624.69;;;6.81;71.91
61537;BME280;48695;53.480;-6.300;2023-03-11T13:55:40;99618.53;;;6.85;71.50
61537;BME280;48695;53.480;-6.300;2023-03-11T13:58:23;99589.38;;;6.74;71.80
61537;BME280;48695;53.480;-6.300;2023-03-11T14:00:54;99613.28;;;6.87;72.18
61537;BME280;48695;53.480;-6.300;2023-03-11T14:03:21;99596.88;;;6.86;72.19
61537;BME280;48695;53.480;-6.300;2023-03-11T14:06:11;99598.50;;;6.90;72.01
61537;BME280;48695;53.480;-6.300;2023-03-11T14:08:37;99579.50;;;6.90;72.50
61537;BME280;48695;53.480;-6.300;2023-03-11T14:13:40;99570.59;;;6.98;72.50
61537;BME280;48695;53.480;-6.300;2023-03-11T14:16:14;99553.31;;;6.97;72.35
61537;BME280;48695;53.480;-6.300;2023-03-11T14:18:43;99563.47;;;7.07;73.19
61537;BME280;48695;53.480;-6.300;2023-03-11T14:21:13;99559.91;;;7.11;73.12
61537;BME280;48695;53.480;-6.300;2023-03-11T14:23:44;99557.19;;;7.15;73.45
61537;BME280;48695;53.480;-6.300;2023-03-11T14:26:19;99549.34;;;7.17;73.68
61537;BME280;48695;53.480;-6.300;2023-03-11T14:28:49;99554.28;;;7.26;73.76